Archival Weather

NSFA McMurdo Sound

NSFA McMurdo Sound, Antarctica (NZCM)

Report from: Friday, September 23, 2022 9:28 PM UTC
Current time: Sunday, December 4, 2022 1:14 PM UTC

Current weather
Weather history
Weather forecast

Present weatherHaze
Temperature-13.8°C (7.2°F)
Wind chill-23.8°C (-10.8°F)
Dew point-16.6°C (2.1°F)
Winds 14 kts (7.2 m/s, 16.1 mph) South-Southeast (150°)
Wind gusts 23 kts (11.8 m/s, 26.5 mph)
Visibility0.6 mi. (1 km)
Clouds Ceiling: Vertical visibility 700 ft. (213 m)
Altimeter28.64 in.Hg (970 mB)
Precip. events Snow ended 9:28 PM
Relative humidity79 %
Density altitude-2,077 ft. (-633 m)
Sea-level pressure107.1 kPa (1071 mB, 31.61 in.Hg)
Remarks Fully automated report
System requires maintenance
Special weather observation
Automated weather observing station with precipitation discriminator
Flight conditions Low Instrument Meteorological Conditions
Raw dataSPECI NZCM 232128Z AUTO 15014G23KT 1000 HZ VV007 M14/M17 A2864 RMK AO2 SNE2128 SLP706 T11381166 $
An error has occurred. This application may no longer respond until reloaded. Reload 🗙